sensor_id;sensor_type;location;lat;lon;timestamp;pressure;altitude;pressure_sealevel;temperature;humidity
60920;BME280;59039;52.108;19.942;2023-05-03T00:01:16;101341.10;;;12.17;64.70
60920;BME280;59039;52.108;19.942;2023-05-03T00:03:49;101338.02;;;12.16;64.27
60920;BME280;59039;52.108;19.942;2023-05-03T00:08:56;101348.13;;;12.13;64.51
60920;BME280;59039;52.108;19.942;2023-05-03T00:11:21;101350.50;;;12.11;64.21
60920;BME280;59039;52.108;19.942;2023-05-03T00:13:54;101348.64;;;12.07;63.64
60920;BME280;59039;52.108;19.942;2023-05-03T00:16:27;101350.34;;;12.05;64.37
60920;BME280;59039;52.108;19.942;2023-05-03T00:18:52;101355.38;;;12.02;64.07
60920;BME280;59039;52.108;19.942;2023-05-03T00:21:29;101355.56;;;11.98;63.76
60920;BME280;59039;52.108;19.942;2023-05-03T00:23:54;101356.48;;;11.94;64.70
60920;BME280;59039;52.108;19.942;2023-05-03T00:26:29;101359.14;;;11.90;64.40
60920;BME280;59039;52.108;19.942;2023-05-03T00:29:03;101359.58;;;11.87;64.84
60920;BME280;59039;52.108;19.942;2023-05-03T00:31:28;101361.76;;;11.83;64.47
60920;BME280;59039;52.108;19.942;2023-05-03T00:33:53;101361.84;;;11.80;64.78
60920;BME280;59039;52.108;19.942;2023-05-03T00:36:40;101357.95;;;11.77;65.57
60920;BME280;59039;52.108;19.942;2023-05-03T00:39:08;101356.20;;;11.72;65.60
60920;BME280;59039;52.108;19.942;2023-05-03T00:41:33;101361.63;;;11.68;65.33
60920;BME280;59039;52.108;19.942;2023-05-03T00:43:59;101365.79;;;11.64;65.28
60920;BME280;59039;52.108;19.942;2023-05-03T00:46:24;101362.91;;;11.62;65.48
60920;BME280;59039;52.108;19.942;2023-05-03T00:48:52;101368.29;;;11.59;65.71
60920;BME280;59039;52.108;19.942;2023-05-03T00:51:48;101363.00;;;11.55;65.80
60920;BME280;59039;52.108;19.942;2023-05-03T00:54:20;101367.17;;;11.51;65.61
60920;BME280;59039;52.108;19.942;2023-05-03T00:57:09;101365.66;;;11.48;65.99
60920;BME280;59039;52.108;19.942;2023-05-03T00:59:42;101366.11;;;11.45;66.06
60920;BME280;59039;52.108;19.942;2023-05-03T01:02:14;101363.84;;;11.42;66.05
60920;BME280;59039;52.108;19.942;2023-05-03T01:04:48;101368.98;;;11.39;65.85
60920;BME280;59039;52.108;19.942;2023-05-03T01:18:46;101368.49;;;11.26;65.82
60920;BME280;59039;52.108;19.942;2023-05-03T01:21:34;101365.66;;;11.25;65.89
60920;BME280;59039;52.108;19.942;2023-05-03T01:24:10;101363.95;;;11.22;65.73
60920;BME280;59039;52.108;19.942;2023-05-03T01:26:59;101361.91;;;11.19;65.56
60920;BME280;59039;52.108;19.942;2023-05-03T01:29:43;101359.94;;;11.16;65.69
60920;BME280;59039;52.108;19.942;2023-05-03T01:32:16;101363.33;;;11.13;65.31
60920;BME280;59039;52.108;19.942;2023-05-03T01:40:28;101361.69;;;11.09;66.01
60920;BME280;59039;52.108;19.942;2023-05-03T01:42:55;101365.96;;;11.10;66.31
60920;BME280;59039;52.108;19.942;2023-05-03T01:45:33;101368.04;;;11.09;66.16
60920;BME280;59039;52.108;19.942;2023-05-03T01:47:59;101382.58;;;11.08;66.33
60920;BME280;59039;52.108;19.942;2023-05-03T01:50:24;101389.38;;;11.07;66.13
60920;BME280;59039;52.108;19.942;2023-05-03T01:58:10;101403.07;;;11.04;66.72
60920;BME280;59039;52.108;19.942;2023-05-03T02:00:37;101406.98;;;11.05;66.76
60920;BME280;59039;52.108;19.942;2023-05-03T02:03:02;101403.12;;;11.03;67.30
60920;BME280;59039;52.108;19.942;2023-05-03T02:05:51;101399.98;;;11.02;67.58
60920;BME280;59039;52.108;19.942;2023-05-03T02:08:36;101397.92;;;10.99;67.55
60920;BME280;59039;52.108;19.942;2023-05-03T02:13:47;101393.18;;;10.95;67.24
60920;BME280;59039;52.108;19.942;2023-05-03T02:16:13;101400.35;;;10.94;67.30
60920;BME280;59039;52.108;19.942;2023-05-03T02:18:40;101406.34;;;10.94;67.44
60920;BME280;59039;52.108;19.942;2023-05-03T02:21:07;101411.52;;;10.93;67.70
60920;BME280;59039;52.108;19.942;2023-05-03T02:23:45;101423.29;;;10.93;67.66
60920;BME280;59039;52.108;19.942;2023-05-03T02:26:11;101426.63;;;10.92;68.23
60920;BME280;59039;52.108;19.942;2023-05-03T02:28:36;101426.02;;;10.91;68.04
60920;BME280;59039;52.108;19.942;2023-05-03T02:31:02;101415.38;;;10.88;67.26
60920;BME280;59039;52.108;19.942;2023-05-03T02:33:27;101401.63;;;10.85;66.59
60920;BME280;59039;52.108;19.942;2023-05-03T02:35:56;101394.61;;;10.82;66.83
60920;BME280;59039;52.108;19.942;2023-05-03T02:38:21;101390.02;;;10.77;66.88
60920;BME280;59039;52.108;19.942;2023-05-03T02:40:47;101385.33;;;10.71;66.72
60920;BME280;59039;52.108;19.942;2023-05-03T02:43:30;101391.85;;;10.66;66.97
60920;BME280;59039;52.108;19.942;2023-05-03T02:46:36;101406.02;;;10.64;67.10
60920;BME280;59039;52.108;19.942;2023-05-03T02:49:01;101410.26;;;10.61;67.15
60920;BME280;59039;52.108;19.942;2023-05-03T02:51:29;101411.06;;;10.60;66.86
60920;BME280;59039;52.108;19.942;2023-05-03T02:53:57;101415.20;;;10.60;66.57
60920;BME280;59039;52.108;19.942;2023-05-03T02:56:22;101422.13;;;10.58;66.18
60920;BME280;59039;52.108;19.942;2023-05-03T02:58:48;101423.38;;;10.56;66.13
60920;BME280;59039;52.108;19.942;2023-05-03T03:01:15;101425.02;;;10.54;66.07
60920;BME280;59039;52.108;19.942;2023-05-03T03:04:04;101427.55;;;10.52;66.17
60920;BME280;59039;52.108;19.942;2023-05-03T03:06:30;101431.40;;;10.51;66.25
60920;BME280;59039;52.108;19.942;2023-05-03T03:08:55;101438.02;;;10.52;66.37
60920;BME280;59039;52.108;19.942;2023-05-03T03:11:21;101442.02;;;10.54;66.48
60920;BME280;59039;52.108;19.942;2023-05-03T03:13:46;101441.70;;;10.55;66.31
60920;BME280;59039;52.108;19.942;2023-05-03T03:16:12;101445.46;;;10.56;66.38
60920;BME280;59039;52.108;19.942;2023-05-03T03:18:45;101448.92;;;10.56;66.35
60920;BME280;59039;52.108;19.942;2023-05-03T03:21:13;101452.77;;;10.55;66.67
60920;BME280;59039;52.108;19.942;2023-05-03T03:23:39;101452.90;;;10.56;66.86
60920;BME280;59039;52.108;19.942;2023-05-03T03:26:04;101455.69;;;10.57;66.75
60920;BME280;59039;52.108;19.942;2023-05-03T03:28:30;101456.14;;;10.58;66.99
60920;BME280;59039;52.108;19.942;2023-05-03T03:31:16;101452.36;;;10.60;67.00
60920;BME280;59039;52.108;19.942;2023-05-03T03:33:41;101451.43;;;10.60;67.29
60920;BME280;59039;52.108;19.942;2023-05-03T03:36:07;101453.02;;;10.61;67.58
60920;BME280;59039;52.108;19.942;2023-05-03T03:38:32;101457.45;;;10.62;67.25
60920;BME280;59039;52.108;19.942;2023-05-03T03:40:58;101463.15;;;10.63;67.05
60920;BME280;59039;52.108;19.942;2023-05-03T03:43:23;101464.09;;;10.65;67.09
60920;BME280;59039;52.108;19.942;2023-05-03T03:48:45;101462.95;;;10.65;67.68
60920;BME280;59039;52.108;19.942;2023-05-03T03:51:10;101465.15;;;10.65;67.09
60920;BME280;59039;52.108;19.942;2023-05-03T03:53:41;101465.15;;;10.65;67.26
60920;BME280;59039;52.108;19.942;2023-05-03T03:56:07;101467.67;;;10.65;67.19
60920;BME280;59039;52.108;19.942;2023-05-03T03:58:32;101469.92;;;10.64;67.35
60920;BME280;59039;52.108;19.942;2023-05-03T04:00:58;101473.23;;;10.64;67.00
60920;BME280;59039;52.108;19.942;2023-05-03T04:03:31;101476.75;;;10.61;66.31
60920;BME280;59039;52.108;19.942;2023-05-03T04:05:57;101480.55;;;10.59;66.21
60920;BME280;59039;52.108;19.942;2023-05-03T04:08:22;101477.96;;;10.57;65.98
60920;BME280;59039;52.108;19.942;2023-05-03T04:10:57;101473.14;;;10.57;65.90
60920;BME280;59039;52.108;19.942;2023-05-03T04:13:28;101471.96;;;10.55;66.13
60920;BME280;59039;52.108;19.942;2023-05-03T04:15:54;101474.73;;;10.53;65.97
60920;BME280;59039;52.108;19.942;2023-05-03T04:18:32;101478.27;;;10.52;66.04
60920;BME280;59039;52.108;19.942;2023-05-03T04:21:07;101483.44;;;10.53;66.01
60920;BME280;59039;52.108;19.942;2023-05-03T04:23:56;101487.31;;;10.54;66.17
60920;BME280;59039;52.108;19.942;2023-05-03T04:26:21;101490.49;;;10.55;65.87
60920;BME280;59039;52.108;19.942;2023-05-03T04:29:10;101495.73;;;10.57;65.64
60920;BME280;59039;52.108;19.942;2023-05-03T04:31:36;101502.89;;;10.58;65.09
60920;BME280;59039;52.108;19.942;2023-05-03T04:34:06;101505.31;;;10.57;64.83
60920;BME280;59039;52.108;19.942;2023-05-03T04:36:41;101508.21;;;10.55;64.51
60920;BME280;59039;52.108;19.942;2023-05-03T04:39:07;101513.84;;;10.55;64.81
60920;BME280;59039;52.108;19.942;2023-05-03T04:41:41;101512.69;;;10.56;64.71
60920;BME280;59039;52.108;19.942;2023-05-03T04:44:09;101517.18;;;10.57;65.18
60920;BME280;59039;52.108;19.942;2023-05-03T04:46:35;101522.57;;;10.57;65.41
60920;BME280;59039;52.108;19.942;2023-05-03T04:49:00;101523.63;;;10.57;65.65
60920;BME280;59039;52.108;19.942;2023-05-03T04:51:25;101527.09;;;10.55;65.52
60920;BME280;59039;52.108;19.942;2023-05-03T04:53:51;101529.99;;;10.53;65.57
60920;BME280;59039;52.108;19.942;2023-05-03T04:56:16;101528.52;;;10.53;65.86
60920;BME280;59039;52.108;19.942;2023-05-03T05:01:28;101529.20;;;10.54;66.29
60920;BME280;59039;52.108;19.942;2023-05-03T05:04:01;101531.33;;;10.54;66.62
60920;BME280;59039;52.108;19.942;2023-05-03T05:06:27;101534.56;;;10.54;66.42
60920;BME280;59039;52.108;19.942;2023-05-03T05:08:52;101535.05;;;10.55;66.39
60920;BME280;59039;52.108;19.942;2023-05-03T05:11:18;101536.76;;;10.57;66.73
60920;BME280;59039;52.108;19.942;2023-05-03T05:13:43;101542.20;;;10.61;66.69
60920;BME280;59039;52.108;19.942;2023-05-03T05:16:16;101544.98;;;10.64;66.91
60920;BME280;59039;52.108;19.942;2023-05-03T05:18:41;101547.08;;;10.67;67.11
60920;BME280;59039;52.108;19.942;2023-05-03T05:21:07;101550.31;;;10.70;67.64
60920;BME280;59039;52.108;19.942;2023-05-03T05:23:38;101548.46;;;10.75;66.83
60920;BME280;59039;52.108;19.942;2023-05-03T05:26:06;101547.41;;;10.79;66.51
60920;BME280;59039;52.108;19.942;2023-05-03T05:31:10;101554.27;;;10.87;66.05
60920;BME280;59039;52.108;19.942;2023-05-03T05:33:35;101559.35;;;10.90;65.81
60920;BME280;59039;52.108;19.942;2023-05-03T05:36:01;101560.95;;;10.93;65.17
60920;BME280;59039;52.108;19.942;2023-05-03T05:38:26;101562.79;;;10.94;64.25
60920;BME280;59039;52.108;19.942;2023-05-03T05:40:54;101563.10;;;10.99;64.42
60920;BME280;59039;52.108;19.942;2023-05-03T05:43:19;101566.23;;;11.09;64.70
60920;BME280;59039;52.108;19.942;2023-05-03T05:45:53;101568.98;;;11.20;63.78
60920;BME280;59039;52.108;19.942;2023-05-03T05:48:21;101568.41;;;11.33;63.27
60920;BME280;59039;52.108;19.942;2023-05-03T05:50:46;101570.05;;;11.45;62.08
60920;BME280;59039;52.108;19.942;2023-05-03T05:53:14;101568.98;;;11.56;61.49
60920;BME280;59039;52.108;19.942;2023-05-03T05:55:40;101573.52;;;11.64;61.10
60920;BME280;59039;52.108;19.942;2023-05-03T05:58:05;101579.32;;;11.70;59.38
60920;BME280;59039;52.108;19.942;2023-05-03T06:00:52;101582.04;;;11.77;59.40
60920;BME280;59039;52.108;19.942;2023-05-03T06:03:17;101588.10;;;11.84;59.20
60920;BME280;59039;52.108;19.942;2023-05-03T06:05:45;101589.91;;;11.91;57.92
60920;BME280;59039;52.108;19.942;2023-05-03T06:08:20;101590.95;;;11.94;56.92
60920;BME280;59039;52.108;19.942;2023-05-03T06:10:59;101594.94;;;11.96;57.14
60920;BME280;59039;52.108;19.942;2023-05-03T06:13:28;101599.08;;;11.98;55.23
60920;BME280;59039;52.108;19.942;2023-05-03T06:15:55;101602.89;;;11.96;55.92
60920;BME280;59039;52.108;19.942;2023-05-03T06:18:21;101604.94;;;11.94;55.03
60920;BME280;59039;52.108;19.942;2023-05-03T06:20:58;101607.64;;;11.91;55.51
60920;BME280;59039;52.108;19.942;2023-05-03T06:23:37;101611.24;;;11.92;55.58
60920;BME280;59039;52.108;19.942;2023-05-03T06:26:13;101613.55;;;11.95;54.80
60920;BME280;59039;52.108;19.942;2023-05-03T06:28:38;101612.95;;;11.97;53.63
60920;BME280;59039;52.108;19.942;2023-05-03T06:31:04;101615.08;;;11.98;53.16
60920;BME280;59039;52.108;19.942;2023-05-03T06:33:48;101617.02;;;11.97;53.66
60920;BME280;59039;52.108;19.942;2023-05-03T06:36:14;101618.84;;;11.99;53.17
60920;BME280;59039;52.108;19.942;2023-05-03T06:39:20;101620.71;;;12.00;53.16
60920;BME280;59039;52.108;19.942;2023-05-03T06:44:38;101619.84;;;12.06;51.09
60920;BME280;59039;52.108;19.942;2023-05-03T06:47:35;101622.77;;;12.09;49.58
60920;BME280;59039;52.108;19.942;2023-05-03T06:50:20;101624.45;;;12.13;49.32
60920;BME280;59039;52.108;19.942;2023-05-03T06:52:45;101623.05;;;12.19;48.64
60920;BME280;59039;52.108;19.942;2023-05-03T06:55:28;101627.09;;;12.26;49.65
60920;BME280;59039;52.108;19.942;2023-05-03T06:58:01;101626.71;;;12.37;49.11
60920;BME280;59039;52.108;19.942;2023-05-03T07:00:29;101629.81;;;12.49;48.18
60920;BME280;59039;52.108;19.942;2023-05-03T07:02:55;101628.04;;;12.57;47.80
60920;BME280;59039;52.108;19.942;2023-05-03T07:05:36;101628.63;;;12.66;46.25
60920;BME280;59039;52.108;19.942;2023-05-03T07:08:11;101627.10;;;12.81;46.41
60920;BME280;59039;52.108;19.942;2023-05-03T07:10:36;101623.45;;;12.93;47.30
60920;BME280;59039;52.108;19.942;2023-05-03T07:13:02;101626.02;;;13.05;45.81
60920;BME280;59039;52.108;19.942;2023-05-03T07:15:27;101621.61;;;13.15;46.34
60920;BME280;59039;52.108;19.942;2023-05-03T07:17:52;101620.02;;;13.24;45.09
60920;BME280;59039;52.108;19.942;2023-05-03T07:20:18;101619.30;;;13.30;44.84
60920;BME280;59039;52.108;19.942;2023-05-03T07:22:43;101622.42;;;13.40;44.61
60920;BME280;59039;52.108;19.942;2023-05-03T07:25:09;101617.88;;;13.52;44.79
60920;BME280;59039;52.108;19.942;2023-05-03T07:27:34;101620.89;;;13.68;44.62
60920;BME280;59039;52.108;19.942;2023-05-03T07:29:59;101619.63;;;13.83;43.13
60920;BME280;59039;52.108;19.942;2023-05-03T07:32:25;101623.14;;;13.99;44.23
60920;BME280;59039;52.108;19.942;2023-05-03T07:34:50;101620.80;;;14.16;43.30
60920;BME280;59039;52.108;19.942;2023-05-03T07:37:15;101620.29;;;14.31;42.63
60920;BME280;59039;52.108;19.942;2023-05-03T07:39:40;101617.23;;;14.45;42.09
60920;BME280;59039;52.108;19.942;2023-05-03T07:42:06;101617.73;;;14.59;41.50
60920;BME280;59039;52.108;19.942;2023-05-03T07:44:40;101613.57;;;14.75;43.14
60920;BME280;59039;52.108;19.942;2023-05-03T07:47:06;101615.66;;;14.95;42.42
60920;BME280;59039;52.108;19.942;2023-05-03T07:49:31;101614.78;;;15.18;42.31
60920;BME280;59039;52.108;19.942;2023-05-03T07:52:05;101612.52;;;15.35;41.54
60920;BME280;59039;52.108;19.942;2023-05-03T07:54:31;101611.89;;;15.51;40.54
60920;BME280;59039;52.108;19.942;2023-05-03T07:56:56;101615.77;;;15.69;39.37
60920;BME280;59039;52.108;19.942;2023-05-03T07:59:21;101612.16;;;15.83;37.98
60920;BME280;59039;52.108;19.942;2023-05-03T08:01:46;101609.77;;;15.86;36.62
60920;BME280;59039;52.108;19.942;2023-05-03T08:04:12;101610.06;;;15.96;38.30
60920;BME280;59039;52.108;19.942;2023-05-03T08:06:46;101607.80;;;16.08;37.12
60920;BME280;59039;52.108;19.942;2023-05-03T08:09:11;101608.95;;;16.23;37.08
60920;BME280;59039;52.108;19.942;2023-05-03T08:11:39;101612.88;;;16.47;38.20
60920;BME280;59039;52.108;19.942;2023-05-03T08:14:05;101611.69;;;16.65;35.25
60920;BME280;59039;52.108;19.942;2023-05-03T08:16:39;101610.36;;;16.76;34.56
60920;BME280;59039;52.108;19.942;2023-05-03T08:19:15;101611.69;;;16.85;33.61
60920;BME280;59039;52.108;19.942;2023-05-03T08:21:40;101610.31;;;17.08;34.46
60920;BME280;59039;52.108;19.942;2023-05-03T08:24:06;101603.76;;;17.31;34.92
60920;BME280;59039;52.108;19.942;2023-05-03T08:26:32;101611.36;;;17.45;36.11
60920;BME280;59039;52.108;19.942;2023-05-03T08:29:06;101617.55;;;17.42;33.30
60920;BME280;59039;52.108;19.942;2023-05-03T08:31:31;101621.69;;;17.36;33.51
60920;BME280;59039;52.108;19.942;2023-05-03T08:33:57;101615.14;;;17.41;33.62
60920;BME280;59039;52.108;19.942;2023-05-03T08:36:22;101614.64;;;17.30;33.16
60920;BME280;59039;52.108;19.942;2023-05-03T08:38:50;101618.54;;;17.18;33.81
60920;BME280;59039;52.108;19.942;2023-05-03T08:41:21;101627.48;;;17.05;33.80
60920;BME280;59039;52.108;19.942;2023-05-03T08:43:51;101631.04;;;16.91;35.63
60920;BME280;59039;52.108;19.942;2023-05-03T08:46:20;101636.30;;;16.78;36.07
60920;BME280;59039;52.108;19.942;2023-05-03T08:48:47;101638.27;;;16.68;35.56
60920;BME280;59039;52.108;19.942;2023-05-03T08:51:17;101636.98;;;16.57;35.03
60920;BME280;59039;52.108;19.942;2023-05-03T08:53:42;101639.52;;;16.44;35.03
60920;BME280;59039;52.108;19.942;2023-05-03T08:56:09;101633.06;;;16.34;35.28
60920;BME280;59039;52.108;19.942;2023-05-03T08:58:35;101633.84;;;16.27;34.93
60920;BME280;59039;52.108;19.942;2023-05-03T09:01:04;101637.40;;;16.19;35.06
60920;BME280;59039;52.108;19.942;2023-05-03T09:03:33;101639.79;;;16.07;35.35
60920;BME280;59039;52.108;19.942;2023-05-03T09:05:59;101638.73;;;15.94;36.16
60920;BME280;59039;52.108;19.942;2023-05-03T09:08:28;101635.44;;;15.86;36.88
60920;BME280;59039;52.108;19.942;2023-05-03T09:10:54;101633.83;;;15.75;37.22
60920;BME280;59039;52.108;19.942;2023-05-03T09:13:29;101634.79;;;15.63;36.79
60920;BME280;59039;52.108;19.942;2023-05-03T09:15:58;101636.02;;;15.50;36.39
60920;BME280;59039;52.108;19.942;2023-05-03T09:18:26;101639.25;;;15.41;36.93
60920;BME280;59039;52.108;19.942;2023-05-03T09:21:01;101634.64;;;15.33;37.14
60920;BME280;59039;52.108;19.942;2023-05-03T09:25:52;101632.66;;;15.21;38.84
60920;BME280;59039;52.108;19.942;2023-05-03T09:28:26;101632.99;;;15.16;38.77
60920;BME280;59039;52.108;19.942;2023-05-03T09:31:03;101639.05;;;15.11;38.75
60920;BME280;59039;52.108;19.942;2023-05-03T09:33:29;101643.06;;;15.05;37.76
60920;BME280;59039;52.108;19.942;2023-05-03T09:35:59;101644.63;;;14.98;37.65
60920;BME280;59039;52.108;19.942;2023-05-03T09:38:29;101642.66;;;14.91;37.99
60920;BME280;59039;52.108;19.942;2023-05-03T09:40:55;101641.40;;;14.86;38.59
60920;BME280;59039;52.108;19.942;2023-05-03T09:43:26;101636.25;;;14.80;37.86
60920;BME280;59039;52.108;19.942;2023-05-03T09:45:51;101632.73;;;14.77;37.98
60920;BME280;59039;52.108;19.942;2023-05-03T09:48:17;101631.05;;;14.76;37.63
60920;BME280;59039;52.108;19.942;2023-05-03T09:51:03;101631.52;;;14.75;37.86
60920;BME280;59039;52.108;19.942;2023-05-03T09:53:28;101629.37;;;14.74;37.24
60920;BME280;59039;52.108;19.942;2023-05-03T09:55:55;101633.70;;;14.71;37.40
60920;BME280;59039;52.108;19.942;2023-05-03T09:58:21;101639.72;;;14.67;37.86
60920;BME280;59039;52.108;19.942;2023-05-03T10:00:48;101645.64;;;14.63;38.90
60920;BME280;59039;52.108;19.942;2023-05-03T10:03:28;101646.10;;;14.56;38.48
60920;BME280;59039;52.108;19.942;2023-05-03T10:05:57;101647.90;;;14.50;38.53
60920;BME280;59039;52.108;19.942;2023-05-03T10:08:39;101647.38;;;14.47;38.25
60920;BME280;59039;52.108;19.942;2023-05-03T10:11:16;101644.89;;;14.42;38.50
60920;BME280;59039;52.108;19.942;2023-05-03T10:13:47;101641.96;;;14.42;38.89
60920;BME280;59039;52.108;19.942;2023-05-03T10:16:19;101645.60;;;14.46;39.46
60920;BME280;59039;52.108;19.942;2023-05-03T10:18:52;101642.15;;;14.50;38.49
60920;BME280;59039;52.108;19.942;2023-05-03T10:24:16;101638.02;;;14.47;36.28
60920;BME280;59039;52.108;19.942;2023-05-03T10:26:44;101636.36;;;14.44;38.19
60920;BME280;59039;52.108;19.942;2023-05-03T10:32:03;101634.19;;;14.39;39.22
60920;BME280;59039;52.108;19.942;2023-05-03T10:34:31;101634.34;;;14.38;40.02
60920;BME280;59039;52.108;19.942;2023-05-03T10:37:04;101633.11;;;14.36;39.53
60920;BME280;59039;52.108;19.942;2023-05-03T10:39:31;101633.87;;;14.35;39.73
60920;BME280;59039;52.108;19.942;2023-05-03T10:42:06;101635.71;;;14.39;39.27
60920;BME280;59039;52.108;19.942;2023-05-03T10:44:49;101629.39;;;14.44;39.66
60920;BME280;59039;52.108;19.942;2023-05-03T10:47:17;101620.23;;;14.52;39.26
60920;BME280;59039;52.108;19.942;2023-05-03T10:49:43;101626.29;;;14.55;39.01
60920;BME280;59039;52.108;19.942;2023-05-03T10:52:44;101629.70;;;14.62;39.47
60920;BME280;59039;52.108;19.942;2023-05-03T10:55:18;101632.77;;;14.66;39.43
60920;BME280;59039;52.108;19.942;2023-05-03T10:57:44;101633.24;;;14.64;37.12
60920;BME280;59039;52.108;19.942;2023-05-03T11:00:17;101632.98;;;14.60;36.37
60920;BME280;59039;52.108;19.942;2023-05-03T11:06:03;101629.19;;;14.52;37.49
60920;BME280;59039;52.108;19.942;2023-05-03T11:08:29;101622.86;;;14.53;38.06
60920;BME280;59039;52.108;19.942;2023-05-03T11:10:58;101630.11;;;14.55;37.84
60920;BME280;59039;52.108;19.942;2023-05-03T11:13:24;101626.04;;;14.56;37.00
60920;BME280;59039;52.108;19.942;2023-05-03T11:15:57;101629.38;;;14.58;37.54
60920;BME280;59039;52.108;19.942;2023-05-03T11:18:25;101629.74;;;14.58;37.44
60920;BME280;59039;52.108;19.942;2023-05-03T11:21:00;101630.46;;;14.56;38.00
60920;BME280;59039;52.108;19.942;2023-05-03T11:23:33;101633.86;;;14.55;38.33
60920;BME280;59039;52.108;19.942;2023-05-03T11:25:59;101631.14;;;14.54;38.64
60920;BME280;59039;52.108;19.942;2023-05-03T11:28:24;101630.29;;;14.55;39.10
60920;BME280;59039;52.108;19.942;2023-05-03T11:30:53;101632.53;;;14.57;38.25
60920;BME280;59039;52.108;19.942;2023-05-03T11:33:19;101635.88;;;14.58;36.76
60920;BME280;59039;52.108;19.942;2023-05-03T11:35:46;101636.73;;;14.59;37.20
60920;BME280;59039;52.108;19.942;2023-05-03T11:38:15;101636.98;;;14.56;37.00
60920;BME280;59039;52.108;19.942;2023-05-03T11:40:49;101638.48;;;14.54;37.11
60920;BME280;59039;52.108;19.942;2023-05-03T11:43:14;101640.03;;;14.53;36.96
60920;BME280;59039;52.108;19.942;2023-05-03T11:45:50;101636.95;;;14.52;37.05
60920;BME280;59039;52.108;19.942;2023-05-03T11:48:16;101636.74;;;14.53;36.84
60920;BME280;59039;52.108;19.942;2023-05-03T11:51:05;101635.36;;;14.54;37.53
60920;BME280;59039;52.108;19.942;2023-05-03T11:53:52;101637.77;;;14.54;36.39
60920;BME280;59039;52.108;19.942;2023-05-03T11:56:18;101635.95;;;14.52;35.41
60920;BME280;59039;52.108;19.942;2023-05-03T11:58:59;101635.96;;;14.50;35.97
60920;BME280;59039;52.108;19.942;2023-05-03T12:01:28;101636.14;;;14.48;35.44
60920;BME280;59039;52.108;19.942;2023-05-03T12:03:59;101631.77;;;14.48;36.39
60920;BME280;59039;52.108;19.942;2023-05-03T12:06:29;101633.36;;;14.50;36.75
60920;BME280;59039;52.108;19.942;2023-05-03T12:08:55;101635.30;;;14.53;36.87
60920;BME280;59039;52.108;19.942;2023-05-03T12:11:21;101629.16;;;14.54;36.60
60920;BME280;59039;52.108;19.942;2023-05-03T12:14:16;101629.91;;;14.54;36.31
60920;BME280;59039;52.108;19.942;2023-05-03T12:16:48;101625.37;;;14.56;36.61
60920;BME280;59039;52.108;19.942;2023-05-03T12:20:10;101622.30;;;14.59;36.69
60920;BME280;59039;52.108;19.942;2023-05-03T12:24:54;101618.58;;;14.67;36.19
60920;BME280;59039;52.108;19.942;2023-05-03T12:27:33;101617.29;;;14.69;35.18
60920;BME280;59039;52.108;19.942;2023-05-03T12:30:07;101618.14;;;14.68;35.73
60920;BME280;59039;52.108;19.942;2023-05-03T12:32:42;101624.36;;;14.68;36.06
60920;BME280;59039;52.108;19.942;2023-05-03T12:35:08;101625.57;;;14.69;36.69
60920;BME280;59039;52.108;19.942;2023-05-03T12:37:33;101624.25;;;14.67;35.96
60920;BME280;59039;52.108;19.942;2023-05-03T12:39:59;101619.58;;;14.65;36.09
60920;BME280;59039;52.108;19.942;2023-05-03T12:42:27;101616.02;;;14.64;36.28
60920;BME280;59039;52.108;19.942;2023-05-03T12:44:56;101617.69;;;14.62;35.85
60920;BME280;59039;52.108;19.942;2023-05-03T12:47:21;101612.10;;;14.60;35.54
60920;BME280;59039;52.108;19.942;2023-05-03T12:49:46;101607.66;;;14.61;35.62
60920;BME280;59039;52.108;19.942;2023-05-03T12:52:12;101608.16;;;14.64;35.45
60920;BME280;59039;52.108;19.942;2023-05-03T12:54:37;101604.16;;;14.64;35.54
60920;BME280;59039;52.108;19.942;2023-05-03T12:57:05;101601.80;;;14.65;35.79
60920;BME280;59039;52.108;19.942;2023-05-03T12:59:43;101600.48;;;14.68;35.11
60920;BME280;59039;52.108;19.942;2023-05-03T13:02:09;101599.59;;;14.70;35.13
60920;BME280;59039;52.108;19.942;2023-05-03T13:04:35;101600.39;;;14.70;34.88
60920;BME280;59039;52.108;19.942;2023-05-03T13:07:01;101595.19;;;14.71;34.74
60920;BME280;59039;52.108;19.942;2023-05-03T13:09:29;101597.41;;;14.71;33.75
60920;BME280;59039;52.108;19.942;2023-05-03T13:11:57;101595.74;;;14.69;32.88
60920;BME280;59039;52.108;19.942;2023-05-03T13:14:22;101595.92;;;14.68;32.91
60920;BME280;59039;52.108;19.942;2023-05-03T13:16:53;101595.35;;;14.66;34.07
60920;BME280;59039;52.108;19.942;2023-05-03T13:19:21;101592.02;;;14.65;34.38
60920;BME280;59039;52.108;19.942;2023-05-03T13:21:56;101586.82;;;14.60;34.65
60920;BME280;59039;52.108;19.942;2023-05-03T13:24:21;101588.67;;;14.58;34.39
60920;BME280;59039;52.108;19.942;2023-05-03T13:26:46;101583.23;;;14.57;34.35
60920;BME280;59039;52.108;19.942;2023-05-03T13:29:12;101578.33;;;14.59;34.49
60920;BME280;59039;52.108;19.942;2023-05-03T13:31:37;101572.52;;;14.61;34.06
60920;BME280;59039;52.108;19.942;2023-05-03T13:34:02;101574.00;;;14.64;33.94
60920;BME280;59039;52.108;19.942;2023-05-03T13:36:37;101571.02;;;14.67;34.11
60920;BME280;59039;52.108;19.942;2023-05-03T13:39:02;101567.27;;;14.70;34.04
60920;BME280;59039;52.108;19.942;2023-05-03T13:41:31;101566.77;;;14.73;33.84
60920;BME280;59039;52.108;19.942;2023-05-03T13:44:00;101566.05;;;14.74;33.58
60920;BME280;59039;52.108;19.942;2023-05-03T13:46:25;101567.65;;;14.77;33.07
60920;BME280;59039;52.108;19.942;2023-05-03T13:48:50;101561.94;;;14.77;33.25